Alexandria, United Kingdom
Current Conditions -  °F | °C
As of 8:50 AM on Monday 20 Oct 2014 (Local Time) from EGPF Reporting Station
Overcast Overcast  
Wind Chill: 50°   Ceiling: 4600
Heat Index: 50°   Visibility: 6mi
Dew Point: 48°   Wind: 12mph
Humidity: 94%   Direction: 240°WSW
Pressure: 29.74"   Gusts: NA
Location:  55.99°N, 4.59°W
Report Text: EGPF 200750Z AUTO 24010KT 9999 SCT019 OVC046 10/09 Q1007
Loading
Personal Weather Stations






























Interactive Weather Map New forecast layout! Learn more

10-Day Weather Forecast

Advertisements
Track Severe Weather on mobile